createdAt,value
2019-03-18T00:02:02.764Z,3.07
2019-03-18T00:04:33.312Z,2.70
2019-03-18T00:07:05.826Z,2.70
2019-03-18T00:09:36.515Z,2.37
2019-03-18T00:12:06.629Z,2.33
2019-03-18T00:14:36.535Z,2.55
2019-03-18T00:17:07.314Z,2.75
2019-03-18T00:19:37.348Z,3.40
2019-03-18T00:22:12.325Z,2.90
2019-03-18T00:24:42.600Z,2.50
2019-03-18T00:27:12.359Z,3.27
2019-03-18T00:29:45.216Z,2.95
2019-03-18T00:32:17.450Z,3.10
2019-03-18T00:34:47.298Z,2.87
2019-03-18T00:37:18.597Z,2.87
2019-03-18T00:39:48.981Z,2.72
2019-03-18T00:42:18.939Z,3.00
2019-03-18T00:44:48.735Z,2.37
2019-03-18T00:47:18.604Z,2.87
2019-03-18T00:49:48.679Z,2.72
2019-03-18T00:52:19.601Z,2.53
2019-03-18T00:54:49.379Z,2.77
2019-03-18T00:57:19.178Z,3.05
2019-03-18T00:59:49.493Z,2.43
2019-03-18T01:02:21.134Z,2.62
2019-03-18T01:04:53.189Z,2.85
2019-03-18T01:07:22.898Z,2.90
2019-03-18T01:09:52.831Z,3.12
2019-03-18T01:12:22.658Z,2.42
2019-03-18T01:14:54.617Z,2.77
2019-03-18T01:17:26.087Z,3.55
2019-03-18T01:19:58.365Z,3.10
2019-03-18T01:22:28.140Z,3.45
2019-03-18T01:24:58.446Z,2.90
2019-03-18T01:27:29.445Z,2.98
2019-03-18T01:30:05.686Z,2.72
2019-03-18T01:32:35.579Z,2.30
2019-03-18T01:35:05.495Z,2.47
2019-03-18T01:37:35.743Z,2.30
2019-03-18T01:40:05.932Z,2.90
2019-03-18T01:42:35.804Z,2.30
2019-03-18T01:45:05.718Z,2.27
2019-03-18T01:47:36.090Z,2.30
2019-03-18T01:50:06.386Z,2.20
2019-03-18T01:52:36.493Z,2.00
2019-03-18T01:55:06.432Z,2.30
2019-03-18T01:57:36.081Z,2.40
2019-03-18T02:00:07.556Z,2.70
2019-03-18T02:02:51.893Z,2.62
2019-03-18T02:05:21.608Z,2.37
2019-03-18T02:07:52.974Z,2.40
2019-03-18T02:10:25.792Z,3.23
2019-03-18T02:12:55.943Z,2.62
2019-03-18T02:15:28.313Z,2.70
2019-03-18T02:18:00.744Z,3.15
2019-03-18T02:20:30.955Z,2.77
2019-03-18T02:23:04.130Z,3.45
2019-03-18T02:25:34.877Z,3.42
2019-03-18T02:28:04.701Z,2.73
2019-03-18T02:30:36.659Z,3.00
2019-03-18T02:33:07.171Z,3.37
2019-03-18T02:35:38.200Z,2.93
2019-03-18T02:38:10.876Z,3.17
2019-03-18T02:40:40.629Z,3.77
2019-03-18T02:43:10.496Z,3.05
2019-03-18T02:45:43.116Z,2.97
2019-03-18T02:48:12.887Z,3.42
2019-03-18T02:50:43.008Z,2.87
2019-03-18T02:53:12.773Z,2.30
2019-03-18T02:55:45.631Z,3.12
2019-03-18T02:58:15.459Z,2.80
2019-03-18T03:00:45.227Z,2.40
2019-03-18T03:03:18.030Z,2.87
2019-03-18T03:05:48.185Z,2.83
2019-03-18T03:08:18.057Z,2.80
2019-03-18T03:10:49.298Z,2.70
2019-03-18T03:13:19.517Z,3.17
2019-03-18T03:15:49.747Z,3.27
2019-03-18T03:18:33.655Z,2.90
2019-03-18T03:21:04.813Z,3.58
2019-03-18T03:23:47.913Z,3.05
2019-03-18T03:26:20.772Z,2.50
2019-03-18T03:28:50.455Z,3.40
2019-03-18T03:31:20.550Z,3.50
2019-03-18T03:33:59.963Z,2.40
2019-03-18T03:36:33.231Z,2.40
2019-03-18T03:39:06.023Z,2.67
2019-03-18T03:41:37.052Z,2.37
2019-03-18T03:44:07.168Z,3.10
2019-03-18T03:46:43.831Z,2.27
2019-03-18T03:49:09.664Z,2.20
2019-03-18T03:51:39.799Z,2.40
2019-03-18T03:54:13.830Z,2.52
2019-03-18T03:56:43.861Z,3.08
2019-03-18T03:59:13.971Z,2.63
2019-03-18T04:01:43.768Z,2.27
2019-03-18T04:04:13.614Z,2.27
2019-03-18T04:06:45.600Z,2.40
2019-03-18T04:09:20.574Z,2.37
2019-03-18T04:11:52.367Z,2.47
2019-03-18T04:14:22.128Z,2.92
2019-03-18T04:17:02.414Z,2.33
2019-03-18T04:19:29.337Z,2.30
2019-03-18T04:21:59.098Z,2.58
2019-03-18T04:24:28.891Z,2.58
2019-03-18T04:26:58.829Z,2.58
2019-03-18T04:29:28.531Z,2.25
2019-03-18T04:31:58.591Z,3.55
2019-03-18T04:34:29.975Z,2.55
2019-03-18T04:37:00.183Z,2.25
2019-03-18T04:39:30.016Z,2.52
2019-03-18T04:42:01.614Z,2.58
2019-03-18T04:44:31.643Z,2.47
2019-03-18T04:47:13.481Z,2.70
2019-03-18T04:49:33.282Z,2.40
2019-03-18T04:52:06.269Z,2.67
2019-03-18T04:54:36.238Z,2.47
2019-03-18T04:57:13.770Z,3.02
2019-03-18T04:59:44.175Z,2.60
2019-03-18T05:02:16.623Z,1.82
2019-03-18T05:04:46.287Z,2.52
2019-03-18T05:07:16.024Z,2.60
2019-03-18T05:09:45.958Z,3.20
2019-03-18T05:12:26.946Z,2.30
2019-03-18T05:14:56.690Z,2.47
2019-03-18T05:17:30.017Z,2.20
2019-03-18T05:20:00.809Z,2.50
2019-03-18T05:22:31.280Z,2.05
2019-03-18T05:25:03.373Z,2.30
2019-03-18T05:27:33.155Z,2.17
2019-03-18T05:30:04.846Z,3.02
2019-03-18T05:32:34.741Z,2.22
2019-03-18T05:35:05.709Z,2.10
2019-03-18T05:37:39.721Z,3.25
2019-03-18T05:40:14.638Z,3.10
2019-03-18T05:42:52.595Z,4.20
2019-03-18T05:45:48.233Z,3.37
2019-03-18T05:48:20.595Z,2.60
2019-03-18T05:54:30.616Z,3.70
2019-03-18T05:57:13.850Z,3.15
2019-03-18T05:59:52.781Z,3.42
2019-03-18T06:02:47.177Z,3.20
2019-03-18T06:05:58.116Z,4.10
2019-03-18T06:08:35.185Z,3.92
2019-03-18T06:11:27.835Z,4.47
2019-03-18T06:14:01.615Z,3.52
2019-03-18T06:16:32.213Z,3.67
2019-03-18T06:19:40.238Z,3.15
2019-03-18T06:22:38.278Z,3.92
2019-03-18T06:25:39.519Z,3.25
2019-03-18T06:28:36.704Z,3.60
2019-03-18T06:31:34.983Z,3.40
2019-03-18T06:34:11.654Z,3.17
2019-03-18T06:39:36.791Z,3.73
2019-03-18T06:42:13.970Z,3.80
2019-03-18T06:44:48.037Z,3.45
2019-03-18T06:47:20.178Z,3.13
2019-03-18T06:49:51.524Z,3.90
2019-03-18T06:52:22.102Z,3.95
2019-03-18T06:54:56.811Z,3.43
2019-03-18T06:58:09.110Z,3.85
2019-03-18T07:01:01.706Z,3.80
2019-03-18T07:03:32.024Z,2.53
2019-03-18T07:06:02.067Z,2.30
2019-03-18T07:08:36.132Z,3.20
2019-03-18T07:11:12.144Z,3.35
2019-03-18T07:13:44.455Z,3.63
2019-03-18T07:16:14.181Z,4.03
2019-03-18T07:18:43.910Z,4.42
2019-03-18T07:21:23.619Z,3.77
2019-03-18T07:23:55.365Z,3.60
2019-03-18T07:26:26.264Z,3.87
2019-03-18T07:28:56.159Z,2.30
2019-03-18T07:31:29.098Z,2.50
2019-03-18T07:34:01.583Z,2.52
2019-03-18T07:36:31.747Z,2.70
2019-03-18T07:39:02.717Z,2.40
2019-03-18T07:41:33.094Z,3.17
2019-03-18T07:44:04.769Z,2.52
2019-03-18T07:46:39.986Z,3.83
2019-03-18T07:49:11.015Z,2.50
2019-03-18T07:51:54.683Z,2.85
2019-03-18T07:54:32.575Z,2.45
2019-03-18T07:56:56.337Z,2.40
2019-03-18T07:59:26.793Z,3.25
2019-03-18T08:01:56.680Z,2.47
2019-03-18T08:04:36.903Z,2.30
2019-03-18T08:06:58.911Z,2.37
2019-03-18T08:09:39.795Z,2.67
2019-03-18T08:12:11.600Z,2.30
2019-03-18T08:14:42.039Z,2.50
2019-03-18T08:17:12.056Z,2.50
2019-03-18T08:19:41.936Z,2.57
2019-03-18T08:22:11.723Z,2.65
2019-03-18T08:24:42.303Z,2.70
2019-03-18T08:27:12.127Z,2.55
2019-03-18T08:29:42.274Z,2.60
2019-03-18T08:32:12.629Z,2.75
2019-03-18T08:34:42.737Z,2.50
2019-03-18T08:37:13.069Z,2.90
2019-03-18T08:39:42.919Z,2.70
2019-03-18T08:42:14.841Z,2.70
2019-03-18T08:44:45.209Z,2.70
2019-03-18T08:47:16.713Z,2.50
2019-03-18T08:49:46.816Z,2.70
2019-03-18T08:52:16.607Z,2.70
2019-03-18T08:54:46.316Z,2.70
2019-03-18T08:57:16.446Z,2.62
2019-03-18T08:59:46.178Z,2.60
2019-03-18T09:02:16.676Z,2.90
2019-03-18T09:04:46.969Z,2.70
2019-03-18T09:07:17.157Z,2.75
2019-03-18T09:09:47.042Z,2.50
2019-03-18T09:12:16.898Z,2.58
2019-03-18T09:14:49.280Z,2.87
2019-03-18T09:17:19.150Z,3.37
2019-03-18T09:19:49.906Z,2.58
2019-03-18T09:22:20.591Z,3.00
2019-03-18T09:24:57.443Z,2.60
2019-03-18T09:27:27.870Z,2.80
2019-03-18T09:29:57.780Z,3.12
2019-03-18T09:32:34.210Z,2.80
2019-03-18T09:35:04.276Z,2.80
2019-03-18T09:37:34.446Z,2.60
2019-03-18T09:40:04.781Z,3.55
2019-03-18T09:42:34.758Z,2.70
2019-03-18T09:45:14.554Z,2.80
2019-03-18T09:47:46.495Z,2.60
2019-03-18T09:50:16.663Z,2.92
2019-03-18T09:52:48.316Z,2.70
2019-03-18T09:55:18.247Z,2.80
2019-03-18T09:57:48.359Z,2.70
2019-03-18T10:00:18.423Z,2.80
2019-03-18T10:02:51.158Z,2.70
2019-03-18T10:05:20.840Z,2.90
2019-03-18T10:07:54.387Z,2.72
2019-03-18T10:10:31.492Z,2.58
2019-03-18T10:13:07.091Z,2.90
2019-03-18T10:15:37.298Z,3.10
2019-03-18T10:18:07.331Z,2.72
2019-03-18T10:20:41.635Z,2.50
2019-03-18T10:23:12.316Z,2.62
2019-03-18T10:25:44.454Z,2.50
2019-03-18T10:28:16.497Z,2.87
2019-03-18T10:30:47.200Z,2.50
2019-03-18T10:33:17.185Z,2.65
2019-03-18T10:35:46.954Z,3.03
2019-03-18T10:38:16.854Z,2.70
2019-03-18T10:40:46.751Z,2.70
2019-03-18T10:43:16.973Z,2.60
2019-03-18T10:45:47.095Z,2.90
2019-03-18T10:51:12.969Z,3.60
2019-03-18T10:53:52.828Z,3.20
2019-03-18T10:56:23.797Z,3.40
2019-03-18T10:59:00.578Z,4.42
2019-03-18T11:01:39.651Z,3.20
2019-03-18T11:04:10.015Z,3.08
2019-03-18T11:06:43.406Z,2.97
2019-03-18T11:09:17.560Z,3.62
2019-03-18T11:11:48.167Z,5.03
2019-03-18T11:14:18.015Z,3.12
2019-03-18T11:16:48.222Z,3.47
2019-03-18T11:19:20.114Z,3.12
2019-03-18T11:21:50.240Z,3.00
2019-03-18T11:24:20.016Z,3.00
2019-03-18T11:26:50.060Z,4.15
2019-03-18T11:29:19.766Z,3.05
2019-03-18T11:31:49.724Z,3.12
2019-03-18T11:34:19.647Z,3.10
2019-03-18T11:36:49.760Z,4.67
2019-03-18T11:39:22.924Z,2.95
2019-03-18T11:41:52.995Z,3.15
2019-03-18T11:44:23.976Z,3.52
2019-03-18T11:46:58.305Z,3.10
2019-03-18T11:49:39.107Z,3.08
2019-03-18T11:52:01.335Z,2.90
2019-03-18T11:54:31.543Z,3.20
2019-03-18T11:57:01.285Z,2.70
2019-03-18T11:59:31.185Z,2.90
2019-03-18T12:05:31.194Z,3.02
2019-03-18T12:08:01.514Z,2.80
2019-03-18T12:10:32.880Z,3.30
2019-03-18T12:13:03.863Z,3.42
2019-03-18T12:15:36.421Z,2.90
2019-03-18T12:18:05.939Z,2.80
2019-03-18T12:20:35.967Z,2.67
2019-03-18T12:23:05.643Z,2.90
2019-03-18T12:25:35.381Z,3.00
2019-03-18T12:28:05.750Z,3.22
2019-03-18T12:30:35.620Z,3.35
2019-03-18T12:33:05.523Z,3.40
2019-03-18T12:35:35.329Z,3.90
2019-03-18T12:38:05.635Z,3.17
2019-03-18T12:40:35.924Z,4.35
2019-03-18T12:43:05.860Z,3.10
2019-03-18T12:45:35.735Z,4.78
2019-03-18T12:48:06.146Z,10.72
2019-03-18T12:50:54.549Z,2.90
2019-03-18T12:53:07.396Z,5.08
2019-03-18T12:55:37.256Z,4.75
2019-03-18T12:58:08.938Z,3.17
2019-03-18T13:00:39.517Z,3.30
2019-03-18T13:03:09.852Z,3.12
2019-03-18T13:05:40.778Z,3.22
2019-03-18T13:08:10.658Z,3.02
2019-03-18T13:10:40.941Z,3.10
2019-03-18T13:13:11.169Z,2.80
2019-03-18T13:15:41.260Z,3.00
2019-03-18T13:18:11.368Z,3.22
2019-03-18T13:20:47.557Z,3.45
2019-03-18T13:23:29.538Z,3.02
2019-03-18T13:26:00.607Z,3.33
2019-03-18T13:28:30.430Z,3.02
2019-03-18T13:31:00.668Z,3.10
2019-03-18T13:33:30.856Z,3.40
2019-03-18T13:36:01.641Z,3.30
2019-03-18T13:38:32.801Z,3.37
2019-03-18T13:41:03.979Z,3.10
2019-03-18T13:43:34.122Z,2.85
2019-03-18T13:46:04.659Z,3.10
2019-03-18T13:48:34.644Z,3.35
2019-03-18T13:51:05.250Z,3.10
2019-03-18T13:53:35.008Z,3.20
2019-03-18T13:56:05.136Z,2.87
2019-03-18T13:58:35.440Z,2.93
2019-03-18T14:01:05.614Z,2.90
2019-03-18T14:03:35.536Z,3.20
2019-03-18T14:06:08.028Z,2.77
2019-03-18T14:08:59.575Z,2.95
2019-03-18T14:11:35.651Z,2.80
2019-03-18T14:14:06.318Z,3.00
2019-03-18T14:16:37.417Z,3.00
2019-03-18T14:19:09.051Z,3.10
2019-03-18T14:21:39.639Z,3.62
2019-03-18T14:24:11.344Z,4.47
2019-03-18T14:26:41.056Z,4.10
2019-03-18T14:29:11.590Z,6.22
2019-03-18T14:31:43.544Z,3.30
2019-03-18T14:34:13.998Z,3.30
2019-03-18T14:36:43.903Z,3.37
2019-03-18T14:39:13.907Z,3.20
2019-03-18T14:41:47.148Z,3.08
2019-03-18T14:44:17.726Z,3.05
2019-03-18T14:46:52.244Z,2.98
2019-03-18T14:49:25.975Z,3.92
2019-03-18T14:52:09.012Z,4.92
2019-03-18T14:58:19.830Z,5.55
2019-03-18T15:00:55.229Z,4.47
2019-03-18T15:03:26.823Z,4.65
2019-03-18T15:06:26.621Z,4.70
2019-03-18T15:09:36.250Z,4.62
2019-03-18T15:12:18.927Z,4.47
2019-03-18T15:17:41.525Z,4.07
2019-03-18T15:23:25.996Z,4.67
2019-03-18T15:25:57.011Z,4.03
2019-03-18T15:28:34.234Z,4.33
2019-03-18T15:31:06.091Z,5.03
2019-03-18T15:33:51.989Z,4.60
2019-03-18T15:36:28.592Z,2.98
2019-03-18T15:39:12.737Z,5.50
2019-03-18T15:41:47.849Z,4.80
2019-03-18T15:44:19.718Z,3.72
2019-03-18T15:46:54.865Z,3.13
2019-03-18T15:49:25.230Z,2.50
2019-03-18T15:52:10.926Z,1.77
2019-03-18T15:54:53.109Z,3.87
2019-03-18T15:57:29.267Z,3.62
2019-03-18T16:00:01.424Z,3.80
2019-03-18T16:03:00.744Z,3.75
2019-03-18T16:05:30.518Z,2.90
2019-03-18T16:08:24.997Z,3.43
2019-03-18T16:11:00.574Z,3.20
2019-03-18T16:14:18.578Z,8.45
2019-03-18T16:17:01.940Z,3.33
2019-03-18T16:19:25.306Z,3.47
2019-03-18T16:21:55.159Z,3.70
2019-03-18T16:24:31.561Z,5.17
2019-03-18T16:27:07.121Z,5.20
2019-03-18T16:29:50.874Z,5.13
2019-03-18T16:32:21.255Z,4.40
2019-03-18T16:35:06.919Z,4.37
2019-03-18T16:37:50.403Z,5.33
2019-03-18T16:40:28.475Z,4.53
2019-03-18T16:43:00.321Z,5.90
2019-03-18T16:45:32.217Z,4.67
2019-03-18T16:48:13.594Z,4.97
2019-03-18T16:51:32.771Z,4.25
2019-03-18T17:01:16.476Z,8.83
2019-03-18T17:03:55.307Z,6.42
2019-03-18T17:06:33.507Z,6.00
2019-03-18T17:09:25.281Z,5.80
2019-03-18T17:11:57.845Z,5.10
2019-03-18T17:14:34.400Z,5.55
2019-03-18T17:17:10.187Z,6.70
2019-03-18T17:19:39.869Z,5.17
2019-03-18T17:22:11.163Z,5.58
2019-03-18T17:24:40.981Z,5.80
2019-03-18T17:27:33.215Z,5.97
2019-03-18T17:30:10.242Z,4.17
2019-03-18T17:32:40.514Z,4.50
2019-03-18T17:35:10.766Z,4.12
2019-03-18T17:37:40.943Z,4.55
2019-03-18T17:40:12.543Z,4.30
2019-03-18T17:42:42.527Z,4.87
2019-03-18T17:45:22.426Z,6.72
2019-03-18T17:47:54.985Z,4.12
2019-03-18T17:50:25.609Z,6.65
2019-03-18T17:53:03.710Z,4.87
2019-03-18T17:55:33.824Z,5.15
2019-03-18T17:58:04.381Z,5.90
2019-03-18T18:00:40.909Z,4.75
2019-03-18T18:03:10.956Z,5.33
2019-03-18T18:05:41.346Z,5.47
2019-03-18T18:08:10.999Z,7.37
2019-03-18T18:10:41.210Z,6.03
2019-03-18T18:13:11.079Z,5.35
2019-03-18T18:15:46.390Z,5.40
2019-03-18T18:18:17.007Z,4.95
2019-03-18T18:20:46.942Z,4.90
2019-03-18T18:23:17.095Z,5.33
2019-03-18T18:25:53.531Z,6.87
2019-03-18T18:28:28.636Z,7.05
2019-03-18T18:31:08.562Z,7.12
2019-03-18T18:33:46.139Z,8.28
2019-03-18T18:36:21.765Z,7.25
2019-03-18T18:39:07.395Z,7.05
2019-03-18T18:41:40.866Z,7.33
2019-03-18T18:44:12.577Z,6.35
2019-03-18T18:46:42.982Z,7.47
2019-03-18T18:49:13.056Z,8.88
2019-03-18T18:52:17.357Z,10.30
2019-03-18T18:55:06.117Z,9.08
2019-03-18T19:03:58.338Z,8.53
2019-03-18T19:06:46.315Z,9.20
2019-03-18T19:09:47.524Z,10.20
2019-03-18T19:12:20.888Z,9.55
2019-03-18T19:14:51.159Z,8.03
2019-03-18T19:17:25.525Z,8.00
2019-03-18T19:19:59.807Z,8.08
2019-03-18T19:23:06.973Z,9.50
2019-03-18T19:25:37.326Z,9.20
2019-03-18T19:28:13.419Z,10.10
2019-03-18T19:30:43.173Z,9.63
2019-03-18T19:33:31.172Z,8.93
2019-03-18T19:36:03.115Z,8.53
2019-03-18T19:38:38.941Z,9.05
2019-03-18T19:41:09.450Z,7.62
2019-03-18T19:43:45.079Z,8.48
2019-03-18T19:46:18.377Z,10.95
2019-03-18T19:48:48.949Z,8.23
2019-03-18T19:51:19.028Z,7.50
2019-03-18T19:53:49.677Z,7.78
2019-03-18T19:56:19.488Z,7.28
2019-03-18T19:58:49.379Z,7.22
2019-03-18T20:01:19.119Z,7.87
2019-03-18T20:03:49.861Z,8.08
2019-03-18T20:06:22.592Z,11.43
2019-03-18T20:09:26.353Z,9.80
2019-03-18T20:11:58.465Z,8.93
2019-03-18T20:14:32.569Z,9.98
2019-03-18T20:17:01.483Z,8.60
2019-03-18T20:19:32.947Z,9.50
2019-03-18T20:22:03.269Z,10.70
2019-03-18T20:24:34.255Z,9.18
2019-03-18T20:27:06.627Z,8.63
2019-03-18T20:29:38.556Z,10.95
2019-03-18T20:32:11.597Z,10.50
2019-03-18T20:34:41.502Z,10.00
2019-03-18T20:37:19.387Z,10.28
2019-03-18T20:39:49.749Z,10.18
2019-03-18T20:42:21.254Z,12.40
2019-03-18T20:44:53.734Z,10.30
2019-03-18T20:47:56.421Z,9.88
2019-03-18T20:50:28.213Z,10.40
2019-03-18T20:52:58.032Z,8.83
2019-03-18T20:55:28.251Z,9.78
2019-03-18T20:57:59.392Z,9.05
2019-03-18T21:00:29.525Z,8.30
2019-03-18T21:02:59.735Z,8.30
2019-03-18T21:05:31.680Z,8.90
2019-03-18T21:08:06.196Z,10.05
2019-03-18T21:10:36.037Z,10.55
2019-03-18T21:13:07.903Z,9.07
2019-03-18T21:15:37.682Z,9.63
2019-03-18T21:18:07.641Z,9.68
2019-03-18T21:20:37.443Z,9.00
2019-03-18T21:23:10.276Z,10.25
2019-03-18T21:25:40.023Z,9.08
2019-03-18T21:28:09.712Z,8.50
2019-03-18T21:30:45.968Z,9.87
2019-03-18T21:33:15.710Z,9.10
2019-03-18T21:35:46.047Z,8.78
2019-03-18T21:38:18.579Z,8.48
2019-03-18T21:40:48.499Z,8.63
2019-03-18T21:43:18.631Z,7.92
2019-03-18T21:45:49.309Z,7.65
2019-03-18T21:48:23.612Z,8.55
2019-03-18T21:50:53.326Z,8.35
2019-03-18T21:53:25.772Z,8.37
2019-03-18T21:55:57.275Z,7.60
2019-03-18T21:58:28.025Z,8.25
2019-03-18T22:00:59.438Z,8.47
2019-03-18T22:03:29.285Z,8.38
2019-03-18T22:06:00.901Z,9.08
2019-03-18T22:08:36.429Z,7.97
2019-03-18T22:11:07.868Z,8.35
2019-03-18T22:13:43.496Z,8.58
2019-03-18T22:16:14.812Z,7.80
2019-03-18T22:18:51.257Z,7.70
2019-03-18T22:21:26.131Z,8.53
2019-03-18T22:23:55.888Z,8.13
2019-03-18T22:26:29.712Z,8.33
2019-03-18T22:28:59.621Z,8.13
2019-03-18T22:31:30.028Z,7.70
2019-03-18T22:34:06.522Z,8.10
2019-03-18T22:36:36.491Z,7.80
2019-03-18T22:39:15.751Z,8.03
2019-03-18T22:41:48.599Z,7.97
2019-03-18T22:44:19.132Z,8.05
2019-03-18T22:46:49.685Z,7.37
2019-03-18T22:49:22.169Z,8.10
2019-03-18T22:51:52.524Z,7.13
2019-03-18T22:54:25.773Z,7.60
2019-03-18T22:56:55.613Z,7.03
2019-03-18T22:59:28.620Z,8.48
2019-03-18T23:01:59.140Z,7.80
2019-03-18T23:04:29.068Z,7.30
2019-03-18T23:06:59.281Z,7.65
2019-03-18T23:09:36.292Z,7.53
2019-03-18T23:12:09.144Z,7.47
2019-03-18T23:14:39.847Z,7.37
2019-03-18T23:17:12.639Z,7.05
2019-03-18T23:19:46.648Z,7.27
2019-03-18T23:22:16.695Z,6.92
2019-03-18T23:24:46.420Z,6.55
2019-03-18T23:27:20.059Z,6.65
2019-03-18T23:29:49.924Z,7.85
2019-03-18T23:32:20.595Z,7.85
2019-03-18T23:34:50.820Z,7.15
2019-03-18T23:37:20.590Z,7.72
2019-03-18T23:39:51.524Z,7.58
2019-03-18T23:42:22.282Z,7.33
2019-03-18T23:44:52.996Z,7.17
2019-03-18T23:47:22.915Z,7.72
2019-03-18T23:49:52.687Z,7.70
2019-03-18T23:52:25.198Z,7.90
2019-03-18T23:54:57.657Z,8.03
2019-03-18T23:57:30.839Z,8.08
